sensor_id;sensor_type;location;lat;lon;timestamp;P1;durP1;ratioP1;P2;durP2;ratioP2
40931;SDS011;36257;46.052;12.540;2023-08-21T03:05:52;8.95;;;8.18;;
40931;SDS011;36257;46.052;12.540;2023-08-21T03:10:54;8.07;;;7.47;;
40931;SDS011;36257;46.052;12.540;2023-08-21T04:07:42;10.07;;;9.07;;
40931;SDS011;36257;46.052;12.540;2023-08-21T04:12:43;8.38;;;7.70;;
40931;SDS011;36257;46.052;12.540;2023-08-21T04:15:09;9.23;;;8.32;;
40931;SDS011;36257;46.052;12.540;2023-08-21T04:17:35;9.35;;;8.48;;
40931;SDS011;36257;46.052;12.540;2023-08-21T04:20:02;10.03;;;9.00;;
40931;SDS011;36257;46.052;12.540;2023-08-21T04:22:28;9.57;;;8.77;;
40931;SDS011;36257;46.052;12.540;2023-08-21T04:24:54;10.15;;;9.05;;
40931;SDS011;36257;46.052;12.540;2023-08-21T04:27:19;9.25;;;8.45;;
40931;SDS011;36257;46.052;12.540;2023-08-21T04:29:45;9.95;;;9.15;;
40931;SDS011;36257;46.052;12.540;2023-08-21T04:32:11;10.10;;;9.23;;
40931;SDS011;36257;46.052;12.540;2023-08-21T04:34:37;10.02;;;9.10;;
40931;SDS011;36257;46.052;12.540;2023-08-21T04:37:03;10.10;;;9.10;;
40931;SDS011;36257;46.052;12.540;2023-08-21T05:00:15;9.32;;;8.63;;
40931;SDS011;36257;46.052;12.540;2023-08-21T05:02:41;9.35;;;8.55;;
40931;SDS011;36257;46.052;12.540;2023-08-21T05:05:06;9.27;;;8.57;;
40931;SDS011;36257;46.052;12.540;2023-08-21T05:10:00;10.40;;;9.27;;
40931;SDS011;36257;46.052;12.540;2023-08-21T05:12:26;10.07;;;9.13;;
40931;SDS011;36257;46.052;12.540;2023-08-21T05:14:52;9.57;;;8.77;;
40931;SDS011;36257;46.052;12.540;2023-08-21T05:17:18;10.43;;;9.52;;
40931;SDS011;36257;46.052;12.540;2023-08-21T05:19:44;10.35;;;9.45;;
40931;SDS011;36257;46.052;12.540;2023-08-21T05:22:09;9.45;;;8.65;;
40931;SDS011;36257;46.052;12.540;2023-08-21T05:24:35;11.35;;;8.98;;
40931;SDS011;36257;46.052;12.540;2023-08-21T05:27:01;10.35;;;9.45;;
40931;SDS011;36257;46.052;12.540;2023-08-21T05:29:26;9.00;;;8.30;;
40931;SDS011;36257;46.052;12.540;2023-08-21T05:31:52;9.68;;;8.77;;
40931;SDS011;36257;46.052;12.540;2023-08-21T05:34:17;9.18;;;8.27;;
40931;SDS011;36257;46.052;12.540;2023-08-21T05:36:43;10.20;;;9.40;;
40931;SDS011;36257;46.052;12.540;2023-08-21T05:39:09;9.65;;;8.65;;
40931;SDS011;36257;46.052;12.540;2023-08-21T05:41:34;9.98;;;8.93;;
40931;SDS011;36257;46.052;12.540;2023-08-21T05:44:00;10.55;;;9.15;;
40931;SDS011;36257;46.052;12.540;2023-08-21T05:46:26;9.60;;;8.80;;
40931;SDS011;36257;46.052;12.540;2023-08-21T05:48:51;10.07;;;9.07;;
40931;SDS011;36257;46.052;12.540;2023-08-21T05:51:17;9.13;;;8.32;;
40931;SDS011;36257;46.052;12.540;2023-08-21T05:53:43;9.32;;;8.38;;
40931;SDS011;36257;46.052;12.540;2023-08-21T05:56:08;9.73;;;7.97;;
40931;SDS011;36257;46.052;12.540;2023-08-21T05:58:34;9.55;;;8.38;;
40931;SDS011;36257;46.052;12.540;2023-08-21T06:01:00;8.93;;;8.13;;
40931;SDS011;36257;46.052;12.540;2023-08-21T06:03:26;11.00;;;8.07;;
40931;SDS011;36257;46.052;12.540;2023-08-21T06:05:51;8.85;;;8.15;;
40931;SDS011;36257;46.052;12.540;2023-08-21T06:08:17;10.68;;;7.88;;
40931;SDS011;36257;46.052;12.540;2023-08-21T06:10:43;8.90;;;8.10;;
40931;SDS011;36257;46.052;12.540;2023-08-21T06:13:09;9.27;;;8.40;;
40931;SDS011;36257;46.052;12.540;2023-08-21T06:15:34;9.85;;;9.02;;
40931;SDS011;36257;46.052;12.540;2023-08-21T06:18:00;10.15;;;8.50;;
40931;SDS011;36257;46.052;12.540;2023-08-21T06:20:26;8.95;;;7.90;;
40931;SDS011;36257;46.052;12.540;2023-08-21T06:22:52;8.95;;;8.20;;
40931;SDS011;36257;46.052;12.540;2023-08-21T06:25:17;8.05;;;7.35;;
40931;SDS011;36257;46.052;12.540;2023-08-21T06:27:44;9.23;;;8.52;;
40931;SDS011;36257;46.052;12.540;2023-08-21T06:30:10;9.70;;;8.63;;
40931;SDS011;36257;46.052;12.540;2023-08-21T06:32:36;8.90;;;8.13;;
40931;SDS011;36257;46.052;12.540;2023-08-21T06:35:01;9.35;;;8.45;;
40931;SDS011;36257;46.052;12.540;2023-08-21T06:37:27;9.02;;;8.20;;
40931;SDS011;36257;46.052;12.540;2023-08-21T06:39:53;8.98;;;8.07;;
40931;SDS011;36257;46.052;12.540;2023-08-21T06:42:18;9.30;;;8.50;;
40931;SDS011;36257;46.052;12.540;2023-08-21T06:44:44;8.75;;;8.00;;
40931;SDS011;36257;46.052;12.540;2023-08-21T06:47:10;9.82;;;7.75;;
40931;SDS011;36257;46.052;12.540;2023-08-21T06:49:35;8.80;;;7.72;;
40931;SDS011;36257;46.052;12.540;2023-08-21T06:52:01;62.42;;;14.73;;
40931;SDS011;36257;46.052;12.540;2023-08-21T06:54:28;12.02;;;8.48;;
40931;SDS011;36257;46.052;12.540;2023-08-21T06:56:53;9.50;;;8.55;;
40931;SDS011;36257;46.052;12.540;2023-08-21T06:59:19;10.25;;;8.43;;
40931;SDS011;36257;46.052;12.540;2023-08-21T07:01:44;10.18;;;9.23;;
40931;SDS011;36257;46.052;12.540;2023-08-21T07:04:10;8.80;;;8.00;;
40931;SDS011;36257;46.052;12.540;2023-08-21T07:06:36;8.90;;;8.07;;
40931;SDS011;36257;46.052;12.540;2023-08-21T07:09:01;9.18;;;8.43;;
40931;SDS011;36257;46.052;12.540;2023-08-21T07:11:27;9.15;;;7.85;;
40931;SDS011;36257;46.052;12.540;2023-08-21T07:13:53;9.20;;;8.40;;
40931;SDS011;36257;46.052;12.540;2023-08-21T07:16:18;8.20;;;7.47;;
40931;SDS011;36257;46.052;12.540;2023-08-21T07:18:44;9.15;;;7.80;;
40931;SDS011;36257;46.052;12.540;2023-08-21T07:21:10;8.50;;;7.78;;
40931;SDS011;36257;46.052;12.540;2023-08-21T07:23:35;8.80;;;8.07;;
40931;SDS011;36257;46.052;12.540;2023-08-21T07:26:01;8.10;;;7.38;;
40931;SDS011;36257;46.052;12.540;2023-08-21T07:28:28;8.20;;;7.50;;
40931;SDS011;36257;46.052;12.540;2023-08-21T07:30:57;8.43;;;7.55;;
40931;SDS011;36257;46.052;12.540;2023-08-21T07:33:26;8.15;;;7.38;;
40931;SDS011;36257;46.052;12.540;2023-08-21T07:36:05;12.27;;;7.45;;
40931;SDS011;36257;46.052;12.540;2023-08-21T07:38:31;8.13;;;7.38;;
40931;SDS011;36257;46.052;12.540;2023-08-21T07:41:04;7.50;;;6.90;;
40931;SDS011;36257;46.052;12.540;2023-08-21T07:43:32;9.93;;;7.85;;
40931;SDS011;36257;46.052;12.540;2023-08-21T07:46:01;9.93;;;8.05;;
40931;SDS011;36257;46.052;12.540;2023-08-21T07:48:31;8.52;;;7.72;;
40931;SDS011;36257;46.052;12.540;2023-08-21T07:50:57;9.15;;;6.95;;
40931;SDS011;36257;46.052;12.540;2023-08-21T07:53:23;11.70;;;8.02;;
40931;SDS011;36257;46.052;12.540;2023-08-21T07:55:50;8.50;;;6.90;;
40931;SDS011;36257;46.052;12.540;2023-08-21T07:58:15;7.40;;;6.80;;
40931;SDS011;36257;46.052;12.540;2023-08-21T08:00:41;8.15;;;7.32;;
40931;SDS011;36257;46.052;12.540;2023-08-21T08:03:07;10.07;;;7.60;;
40931;SDS011;36257;46.052;12.540;2023-08-21T08:05:33;8.60;;;6.67;;
40931;SDS011;36257;46.052;12.540;2023-08-21T08:07:59;8.33;;;7.53;;
40931;SDS011;36257;46.052;12.540;2023-08-21T08:10:25;7.97;;;7.18;;
40931;SDS011;36257;46.052;12.540;2023-08-21T08:12:51;10.40;;;7.63;;
40931;SDS011;36257;46.052;12.540;2023-08-21T08:15:17;7.97;;;7.35;;
40931;SDS011;36257;46.052;12.540;2023-08-21T08:17:43;10.30;;;8.32;;
40931;SDS011;36257;46.052;12.540;2023-08-21T08:20:11;10.13;;;7.65;;
40931;SDS011;36257;46.052;12.540;2023-08-21T08:22:39;8.70;;;7.32;;
40931;SDS011;36257;46.052;12.540;2023-08-21T08:25:05;8.23;;;7.33;;
40931;SDS011;36257;46.052;12.540;2023-08-21T08:27:31;8.00;;;6.93;;
40931;SDS011;36257;46.052;12.540;2023-08-21T08:29:57;9.10;;;7.13;;
40931;SDS011;36257;46.052;12.540;2023-08-21T08:32:23;7.50;;;6.53;;
40931;SDS011;36257;46.052;12.540;2023-08-21T08:34:50;8.13;;;7.43;;
40931;SDS011;36257;46.052;12.540;2023-08-21T08:37:15;7.72;;;6.93;;
40931;SDS011;36257;46.052;12.540;2023-08-21T08:39:41;8.52;;;7.50;;
40931;SDS011;36257;46.052;12.540;2023-08-21T08:42:06;7.73;;;6.20;;
40931;SDS011;36257;46.052;12.540;2023-08-21T08:44:36;11.70;;;7.90;;
40931;SDS011;36257;46.052;12.540;2023-08-21T08:47:03;14.05;;;7.80;;
40931;SDS011;36257;46.052;12.540;2023-08-21T08:49:29;13.27;;;8.03;;
40931;SDS011;36257;46.052;12.540;2023-08-21T08:51:56;10.30;;;7.80;;
40931;SDS011;36257;46.052;12.540;2023-08-21T08:54:23;11.30;;;7.93;;
40931;SDS011;36257;46.052;12.540;2023-08-21T08:56:52;10.27;;;8.70;;
40931;SDS011;36257;46.052;12.540;2023-08-21T08:59:18;12.02;;;7.22;;
40931;SDS011;36257;46.052;12.540;2023-08-21T09:01:44;12.27;;;7.90;;
40931;SDS011;36257;46.052;12.540;2023-08-21T09:04:10;7.93;;;6.95;;
40931;SDS011;36257;46.052;12.540;2023-08-21T09:06:36;8.30;;;7.40;;
40931;SDS011;36257;46.052;12.540;2023-08-21T09:09:02;10.35;;;7.50;;
40931;SDS011;36257;46.052;12.540;2023-08-21T09:11:29;7.85;;;6.63;;
40931;SDS011;36257;46.052;12.540;2023-08-21T09:13:55;10.70;;;6.57;;
40931;SDS011;36257;46.052;12.540;2023-08-21T09:16:22;7.97;;;6.50;;
40931;SDS011;36257;46.052;12.540;2023-08-21T09:21:17;7.25;;;6.70;;
40931;SDS011;36257;46.052;12.540;2023-08-21T09:23:44;7.15;;;6.45;;
40931;SDS011;36257;46.052;12.540;2023-08-21T09:26:22;8.13;;;6.90;;
40931;SDS011;36257;46.052;12.540;2023-08-21T09:28:49;9.88;;;6.95;;
40931;SDS011;36257;46.052;12.540;2023-08-21T09:31:16;7.63;;;6.25;;
40931;SDS011;36257;46.052;12.540;2023-08-21T09:34:01;7.43;;;6.75;;
40931;SDS011;36257;46.052;12.540;2023-08-21T09:36:31;7.40;;;6.70;;
40931;SDS011;36257;46.052;12.540;2023-08-21T09:38:58;7.10;;;6.50;;
40931;SDS011;36257;46.052;12.540;2023-08-21T09:41:25;7.37;;;6.43;;
40931;SDS011;36257;46.052;12.540;2023-08-21T09:43:51;7.97;;;7.28;;
40931;SDS011;36257;46.052;12.540;2023-08-21T09:46:24;7.40;;;6.70;;
40931;SDS011;36257;46.052;12.540;2023-08-21T09:48:54;7.82;;;6.15;;
40931;SDS011;36257;46.052;12.540;2023-08-21T09:51:20;7.28;;;6.68;;
40931;SDS011;36257;46.052;12.540;2023-08-21T09:53:47;9.93;;;7.10;;
40931;SDS011;36257;46.052;12.540;2023-08-21T09:56:14;6.93;;;6.18;;
40931;SDS011;36257;46.052;12.540;2023-08-21T09:58:42;6.72;;;6.13;;
40931;SDS011;36257;46.052;12.540;2023-08-21T10:01:08;6.40;;;5.45;;
40931;SDS011;36257;46.052;12.540;2023-08-21T10:03:39;7.78;;;7.07;;
40931;SDS011;36257;46.052;12.540;2023-08-21T10:06:06;7.38;;;6.53;;
40931;SDS011;36257;46.052;12.540;2023-08-21T10:08:38;8.35;;;6.65;;
40931;SDS011;36257;46.052;12.540;2023-08-21T10:11:06;7.35;;;6.18;;
40931;SDS011;36257;46.052;12.540;2023-08-21T10:13:33;6.22;;;5.63;;
40931;SDS011;36257;46.052;12.540;2023-08-21T10:16:02;7.57;;;6.60;;
40931;SDS011;36257;46.052;12.540;2023-08-21T10:18:32;6.75;;;6.18;;
40931;SDS011;36257;46.052;12.540;2023-08-21T10:21:16;6.00;;;5.40;;
40931;SDS011;36257;46.052;12.540;2023-08-21T10:23:46;7.13;;;6.53;;
40931;SDS011;36257;46.052;12.540;2023-08-21T10:26:13;6.78;;;5.97;;
40931;SDS011;36257;46.052;12.540;2023-08-21T10:34:13;6.82;;;6.20;;
40931;SDS011;36257;46.052;12.540;2023-08-21T10:36:41;7.07;;;6.47;;
40931;SDS011;36257;46.052;12.540;2023-08-21T10:39:25;6.95;;;6.35;;
40931;SDS011;36257;46.052;12.540;2023-08-21T10:44:49;6.72;;;6.13;;
40931;SDS011;36257;46.052;12.540;2023-08-21T10:47:21;7.60;;;6.80;;
40931;SDS011;36257;46.052;12.540;2023-08-21T10:50:08;6.75;;;6.15;;
40931;SDS011;36257;46.052;12.540;2023-08-21T10:52:36;7.70;;;6.22;;
40931;SDS011;36257;46.052;12.540;2023-08-21T10:55:03;7.03;;;6.32;;
40931;SDS011;36257;46.052;12.540;2023-08-21T10:57:30;6.93;;;6.32;;
40931;SDS011;36257;46.052;12.540;2023-08-21T10:59:57;9.60;;;6.45;;
40931;SDS011;36257;46.052;12.540;2023-08-21T11:04:50;7.25;;;6.25;;
40931;SDS011;36257;46.052;12.540;2023-08-21T11:09:42;7.97;;;6.80;;
40931;SDS011;36257;46.052;12.540;2023-08-21T11:12:09;7.00;;;6.40;;
40931;SDS011;36257;46.052;12.540;2023-08-21T11:14:36;7.93;;;7.30;;
40931;SDS011;36257;46.052;12.540;2023-08-21T11:17:03;10.77;;;6.70;;
40931;SDS011;36257;46.052;12.540;2023-08-21T11:19:32;7.23;;;6.33;;
40931;SDS011;36257;46.052;12.540;2023-08-21T11:22:02;8.20;;;6.03;;
40931;SDS011;36257;46.052;12.540;2023-08-21T11:27:06;9.48;;;6.10;;
40931;SDS011;36257;46.052;12.540;2023-08-21T11:29:47;7.18;;;6.65;;
40931;SDS011;36257;46.052;12.540;2023-08-21T11:32:15;7.65;;;6.90;;
40931;SDS011;36257;46.052;12.540;2023-08-21T11:34:42;7.10;;;6.28;;
40931;SDS011;36257;46.052;12.540;2023-08-21T11:37:23;6.65;;;6.15;;
40931;SDS011;36257;46.052;12.540;2023-08-21T11:39:53;7.07;;;6.43;;
40931;SDS011;36257;46.052;12.540;2023-08-21T11:42:29;7.13;;;6.47;;
40931;SDS011;36257;46.052;12.540;2023-08-21T11:44:56;6.63;;;6.13;;
40931;SDS011;36257;46.052;12.540;2023-08-21T11:47:23;7.18;;;6.55;;
40931;SDS011;36257;46.052;12.540;2023-08-21T11:50:05;9.20;;;6.95;;
40931;SDS011;36257;46.052;12.540;2023-08-21T11:52:32;6.95;;;6.28;;
40931;SDS011;36257;46.052;12.540;2023-08-21T11:55:00;7.63;;;6.82;;
40931;SDS011;36257;46.052;12.540;2023-08-21T11:57:26;7.37;;;6.77;;
40931;SDS011;36257;46.052;12.540;2023-08-21T11:59:55;7.38;;;6.72;;
40931;SDS011;36257;46.052;12.540;2023-08-21T12:02:24;7.70;;;7.10;;
40931;SDS011;36257;46.052;12.540;2023-08-21T12:05:03;7.63;;;6.57;;
40931;SDS011;36257;46.052;12.540;2023-08-21T12:07:30;6.70;;;6.20;;
40931;SDS011;36257;46.052;12.540;2023-08-21T12:09:59;7.28;;;6.57;;
40931;SDS011;36257;46.052;12.540;2023-08-21T12:12:25;6.82;;;6.30;;
40931;SDS011;36257;46.052;12.540;2023-08-21T12:14:51;7.00;;;6.30;;
40931;SDS011;36257;46.052;12.540;2023-08-21T12:17:16;7.57;;;6.50;;
40931;SDS011;36257;46.052;12.540;2023-08-21T12:19:42;7.67;;;6.97;;
40931;SDS011;36257;46.052;12.540;2023-08-21T12:22:08;7.55;;;6.60;;
40931;SDS011;36257;46.052;12.540;2023-08-21T12:24:35;7.13;;;6.55;;
40931;SDS011;36257;46.052;12.540;2023-08-21T12:27:02;8.70;;;7.00;;
40931;SDS011;36257;46.052;12.540;2023-08-21T12:29:28;7.28;;;6.50;;
40931;SDS011;36257;46.052;12.540;2023-08-21T12:31:54;7.37;;;6.80;;
40931;SDS011;36257;46.052;12.540;2023-08-21T12:34:19;6.70;;;6.10;;
40931;SDS011;36257;46.052;12.540;2023-08-21T12:36:45;7.33;;;6.77;;
40931;SDS011;36257;46.052;12.540;2023-08-21T12:39:11;7.73;;;7.03;;
40931;SDS011;36257;46.052;12.540;2023-08-21T12:41:37;8.52;;;7.45;;
40931;SDS011;36257;46.052;12.540;2023-08-21T12:44:03;9.40;;;7.03;;
40931;SDS011;36257;46.052;12.540;2023-08-21T12:46:29;6.70;;;6.07;;
40931;SDS011;36257;46.052;12.540;2023-08-21T12:48:55;6.50;;;6.00;;
40931;SDS011;36257;46.052;12.540;2023-08-21T12:51:22;6.80;;;6.20;;
40931;SDS011;36257;46.052;12.540;2023-08-21T12:53:47;8.00;;;7.03;;
40931;SDS011;36257;46.052;12.540;2023-08-21T12:56:13;7.17;;;6.63;;
40931;SDS011;36257;46.052;12.540;2023-08-21T12:58:39;7.80;;;7.07;;
40931;SDS011;36257;46.052;12.540;2023-08-21T13:01:04;10.20;;;6.83;;
40931;SDS011;36257;46.052;12.540;2023-08-21T13:03:30;8.00;;;6.60;;
40931;SDS011;36257;46.052;12.540;2023-08-21T13:05:58;8.70;;;6.80;;
40931;SDS011;36257;46.052;12.540;2023-08-21T13:08:24;9.20;;;6.70;;
40931;SDS011;36257;46.052;12.540;2023-08-21T13:10:49;7.53;;;6.80;;
40931;SDS011;36257;46.052;12.540;2023-08-21T13:13:15;7.87;;;7.17;;
40931;SDS011;36257;46.052;12.540;2023-08-21T13:15:40;9.63;;;7.27;;
40931;SDS011;36257;46.052;12.540;2023-08-21T13:18:09;7.05;;;6.35;;
40931;SDS011;36257;46.052;12.540;2023-08-21T13:20:35;9.48;;;6.18;;
40931;SDS011;36257;46.052;12.540;2023-08-21T13:23:01;7.33;;;6.63;;
40931;SDS011;36257;46.052;12.540;2023-08-21T13:25:27;7.50;;;6.90;;
40931;SDS011;36257;46.052;12.540;2023-08-21T13:27:53;7.72;;;6.93;;
40931;SDS011;36257;46.052;12.540;2023-08-21T13:30:20;7.38;;;6.55;;
40931;SDS011;36257;46.052;12.540;2023-08-21T13:32:45;11.00;;;7.23;;
40931;SDS011;36257;46.052;12.540;2023-08-21T13:35:11;8.10;;;7.00;;
40931;SDS011;36257;46.052;12.540;2023-08-21T13:37:37;6.85;;;6.25;;
40931;SDS011;36257;46.052;12.540;2023-08-21T13:40:04;7.22;;;6.65;;
40931;SDS011;36257;46.052;12.540;2023-08-21T13:42:38;10.05;;;6.35;;
40931;SDS011;36257;46.052;12.540;2023-08-21T13:45:11;7.35;;;6.65;;
40931;SDS011;36257;46.052;12.540;2023-08-21T13:47:38;7.68;;;6.97;;
40931;SDS011;36257;46.052;12.540;2023-08-21T13:50:05;7.88;;;7.07;;
40931;SDS011;36257;46.052;12.540;2023-08-21T13:54:58;8.63;;;6.85;;
40931;SDS011;36257;46.052;12.540;2023-08-21T13:57:24;7.30;;;6.47;;
40931;SDS011;36257;46.052;12.540;2023-08-21T13:59:50;7.60;;;6.87;;
40931;SDS011;36257;46.052;12.540;2023-08-21T14:02:15;7.60;;;6.77;;
40931;SDS011;36257;46.052;12.540;2023-08-21T14:04:43;7.75;;;7.15;;
40931;SDS011;36257;46.052;12.540;2023-08-21T14:07:10;9.10;;;7.13;;
40931;SDS011;36257;46.052;12.540;2023-08-21T14:09:36;7.93;;;7.22;;
40931;SDS011;36257;46.052;12.540;2023-08-21T14:12:02;8.10;;;7.10;;
40931;SDS011;36257;46.052;12.540;2023-08-21T14:14:28;11.07;;;6.70;;
40931;SDS011;36257;46.052;12.540;2023-08-21T14:16:54;8.83;;;7.00;;
40931;SDS011;36257;46.052;12.540;2023-08-21T14:19:20;8.47;;;7.50;;
40931;SDS011;36257;46.052;12.540;2023-08-21T14:21:45;8.50;;;6.53;;
40931;SDS011;36257;46.052;12.540;2023-08-21T14:24:11;7.50;;;6.93;;
40931;SDS011;36257;46.052;12.540;2023-08-21T14:26:36;8.63;;;6.90;;
40931;SDS011;36257;46.052;12.540;2023-08-21T14:29:02;8.53;;;7.73;;
40931;SDS011;36257;46.052;12.540;2023-08-21T15:55:59;8.57;;;7.78;;
40931;SDS011;36257;46.052;12.540;2023-08-21T15:58:26;8.20;;;7.47;;
40931;SDS011;36257;46.052;12.540;2023-08-21T16:03:20;8.90;;;7.50;;
40931;SDS011;36257;46.052;12.540;2023-08-21T16:05:45;10.05;;;8.27;;
40931;SDS011;36257;46.052;12.540;2023-08-21T16:08:11;9.80;;;7.95;;
40931;SDS011;36257;46.052;12.540;2023-08-21T16:10:37;12.45;;;8.70;;
40931;SDS011;36257;46.052;12.540;2023-08-21T16:13:02;15.05;;;7.88;;
40931;SDS011;36257;46.052;12.540;2023-08-21T16:15:31;8.10;;;7.40;;
40931;SDS011;36257;46.052;12.540;2023-08-21T16:17:57;8.90;;;7.90;;
40931;SDS011;36257;46.052;12.540;2023-08-21T16:20:22;9.00;;;8.15;;
40931;SDS011;36257;46.052;12.540;2023-08-21T16:22:52;9.40;;;7.50;;
40931;SDS011;36257;46.052;12.540;2023-08-21T16:25:18;8.65;;;7.75;;
40931;SDS011;36257;46.052;12.540;2023-08-21T16:27:44;9.80;;;8.02;;
40931;SDS011;36257;46.052;12.540;2023-08-21T16:30:10;9.43;;;8.07;;
40931;SDS011;36257;46.052;12.540;2023-08-21T16:32:36;8.03;;;7.30;;
40931;SDS011;36257;46.052;12.540;2023-08-21T16:35:01;8.52;;;7.82;;
40931;SDS011;36257;46.052;12.540;2023-08-21T16:37:28;7.95;;;7.35;;
40931;SDS011;36257;46.052;12.540;2023-08-21T16:39:53;8.80;;;7.90;;
40931;SDS011;36257;46.052;12.540;2023-08-21T16:42:19;10.32;;;8.38;;
40931;SDS011;36257;46.052;12.540;2023-08-21T16:44:45;9.30;;;8.32;;
40931;SDS011;36257;46.052;12.540;2023-08-21T16:47:10;9.02;;;8.13;;
40931;SDS011;36257;46.052;12.540;2023-08-21T16:49:36;8.55;;;7.75;;
40931;SDS011;36257;46.052;12.540;2023-08-21T16:52:03;12.00;;;8.43;;
40931;SDS011;36257;46.052;12.540;2023-08-21T16:54:29;10.55;;;7.85;;
40931;SDS011;36257;46.052;12.540;2023-08-21T16:56:55;8.38;;;7.78;;
40931;SDS011;36257;46.052;12.540;2023-08-21T16:59:20;9.43;;;8.32;;
40931;SDS011;36257;46.052;12.540;2023-08-21T17:01:46;9.40;;;8.55;;
40931;SDS011;36257;46.052;12.540;2023-08-21T17:04:12;9.63;;;8.20;;
40931;SDS011;36257;46.052;12.540;2023-08-21T17:06:37;10.50;;;8.27;;
40931;SDS011;36257;46.052;12.540;2023-08-21T17:09:03;8.90;;;8.13;;
40931;SDS011;36257;46.052;12.540;2023-08-21T17:11:29;9.57;;;8.17;;
40931;SDS011;36257;46.052;12.540;2023-08-21T17:13:55;9.02;;;8.27;;
40931;SDS011;36257;46.052;12.540;2023-08-21T17:16:21;8.80;;;7.95;;
40931;SDS011;36257;46.052;12.540;2023-08-21T17:18:46;8.93;;;8.13;;
40931;SDS011;36257;46.052;12.540;2023-08-21T17:21:12;9.20;;;8.50;;
40931;SDS011;36257;46.052;12.540;2023-08-21T17:23:38;8.68;;;7.88;;
40931;SDS011;36257;46.052;12.540;2023-08-21T17:26:05;9.48;;;8.57;;
40931;SDS011;36257;46.052;12.540;2023-08-21T17:28:30;8.68;;;7.82;;
40931;SDS011;36257;46.052;12.540;2023-08-21T17:30:56;9.77;;;8.40;;
40931;SDS011;36257;46.052;12.540;2023-08-21T17:33:22;9.43;;;8.52;;
40931;SDS011;36257;46.052;12.540;2023-08-21T17:35:48;11.32;;;8.70;;
40931;SDS011;36257;46.052;12.540;2023-08-21T17:38:13;10.25;;;8.70;;
40931;SDS011;36257;46.052;12.540;2023-08-21T17:40:39;9.63;;;8.50;;
40931;SDS011;36257;46.052;12.540;2023-08-21T17:43:05;9.50;;;8.35;;
40931;SDS011;36257;46.052;12.540;2023-08-21T17:45:30;9.88;;;8.90;;
40931;SDS011;36257;46.052;12.540;2023-08-21T17:47:58;9.73;;;8.80;;
40931;SDS011;36257;46.052;12.540;2023-08-21T17:50:23;10.43;;;8.68;;
40931;SDS011;36257;46.052;12.540;2023-08-21T17:52:49;9.15;;;8.23;;
40931;SDS011;36257;46.052;12.540;2023-08-21T17:55:15;9.48;;;8.43;;
40931;SDS011;36257;46.052;12.540;2023-08-21T17:57:40;9.70;;;8.40;;
40931;SDS011;36257;46.052;12.540;2023-08-21T18:00:06;12.07;;;8.43;;
40931;SDS011;36257;46.052;12.540;2023-08-21T18:02:34;9.82;;;8.93;;
40931;SDS011;36257;46.052;12.540;2023-08-21T18:05:00;9.93;;;9.02;;
40931;SDS011;36257;46.052;12.540;2023-08-21T18:07:26;10.00;;;8.95;;
40931;SDS011;36257;46.052;12.540;2023-08-21T18:09:51;10.40;;;9.35;;
40931;SDS011;36257;46.052;12.540;2023-08-21T18:12:17;8.60;;;7.95;;
40931;SDS011;36257;46.052;12.540;2023-08-21T18:14:43;8.27;;;7.68;;
40931;SDS011;36257;46.052;12.540;2023-08-21T18:17:09;9.77;;;8.75;;
40931;SDS011;36257;46.052;12.540;2023-08-21T18:19:39;10.77;;;8.32;;
40931;SDS011;36257;46.052;12.540;2023-08-21T18:22:05;11.80;;;8.07;;
40931;SDS011;36257;46.052;12.540;2023-08-21T18:24:33;9.43;;;8.38;;
40931;SDS011;36257;46.052;12.540;2023-08-21T18:26:59;9.98;;;8.02;;
40931;SDS011;36257;46.052;12.540;2023-08-21T18:29:25;8.95;;;8.05;;
40931;SDS011;36257;46.052;12.540;2023-08-21T18:31:53;9.70;;;8.73;;
40931;SDS011;36257;46.052;12.540;2023-08-21T18:34:21;9.57;;;8.48;;
40931;SDS011;36257;46.052;12.540;2023-08-21T18:36:48;9.30;;;8.43;;
40931;SDS011;36257;46.052;12.540;2023-08-21T18:39:13;9.00;;;8.02;;
40931;SDS011;36257;46.052;12.540;2023-08-21T18:41:39;8.82;;;8.02;;
40931;SDS011;36257;46.052;12.540;2023-08-21T18:44:08;9.25;;;8.05;;
40931;SDS011;36257;46.052;12.540;2023-08-21T18:46:33;10.98;;;8.45;;
40931;SDS011;36257;46.052;12.540;2023-08-21T18:48:59;9.10;;;7.43;;
40931;SDS011;36257;46.052;12.540;2023-08-21T18:51:25;9.80;;;8.40;;
40931;SDS011;36257;46.052;12.540;2023-08-21T18:53:50;10.57;;;8.13;;
40931;SDS011;36257;46.052;12.540;2023-08-21T18:56:16;10.68;;;7.95;;
40931;SDS011;36257;46.052;12.540;2023-08-21T18:58:42;8.80;;;8.00;;
40931;SDS011;36257;46.052;12.540;2023-08-21T19:01:08;9.43;;;7.80;;
40931;SDS011;36257;46.052;12.540;2023-08-21T19:03:33;9.48;;;8.57;;
40931;SDS011;36257;46.052;12.540;2023-08-21T19:05:59;8.93;;;8.02;;
40931;SDS011;36257;46.052;12.540;2023-08-21T19:08:25;8.43;;;7.72;;
40931;SDS011;36257;46.052;12.540;2023-08-21T19:10:51;8.68;;;7.95;;
40931;SDS011;36257;46.052;12.540;2023-08-21T19:13:17;9.48;;;7.97;;
40931;SDS011;36257;46.052;12.540;2023-08-21T19:15:49;9.07;;;8.18;;
40931;SDS011;36257;46.052;12.540;2023-08-21T19:18:15;9.60;;;8.52;;
40931;SDS011;36257;46.052;12.540;2023-08-21T19:20:41;9.10;;;7.97;;
40931;SDS011;36257;46.052;12.540;2023-08-21T19:23:07;9.77;;;8.80;;
40931;SDS011;36257;46.052;12.540;2023-08-21T19:25:32;9.35;;;8.43;;
40931;SDS011;36257;46.052;12.540;2023-08-21T19:27:58;13.38;;;8.73;;
40931;SDS011;36257;46.052;12.540;2023-08-21T19:30:24;8.77;;;7.95;;
40931;SDS011;36257;46.052;12.540;2023-08-21T19:32:50;8.88;;;8.05;;
40931;SDS011;36257;46.052;12.540;2023-08-21T19:35:15;9.73;;;8.82;;
40931;SDS011;36257;46.052;12.540;2023-08-21T19:37:41;9.38;;;8.40;;
40931;SDS011;36257;46.052;12.540;2023-08-21T19:40:07;9.15;;;8.32;;
40931;SDS011;36257;46.052;12.540;2023-08-21T19:42:33;9.15;;;8.20;;
40931;SDS011;36257;46.052;12.540;2023-08-21T19:44:58;9.00;;;8.10;;
40931;SDS011;36257;46.052;12.540;2023-08-21T19:47:24;9.50;;;8.55;;
40931;SDS011;36257;46.052;12.540;2023-08-21T19:49:50;9.88;;;9.07;;
40931;SDS011;36257;46.052;12.540;2023-08-21T19:52:15;9.02;;;8.30;;
40931;SDS011;36257;46.052;12.540;2023-08-21T19:54:41;9.02;;;8.13;;
40931;SDS011;36257;46.052;12.540;2023-08-21T19:57:09;12.30;;;8.48;;
40931;SDS011;36257;46.052;12.540;2023-08-21T19:59:35;9.73;;;8.73;;
40931;SDS011;36257;46.052;12.540;2023-08-21T20:02:00;9.05;;;8.25;;
40931;SDS011;36257;46.052;12.540;2023-08-21T20:04:26;9.32;;;8.38;;
40931;SDS011;36257;46.052;12.540;2023-08-21T20:06:52;9.32;;;8.45;;
40931;SDS011;36257;46.052;12.540;2023-08-21T20:09:18;9.77;;;8.80;;
40931;SDS011;36257;46.052;12.540;2023-08-21T20:11:43;9.75;;;8.75;;
40931;SDS011;36257;46.052;12.540;2023-08-21T20:14:09;10.68;;;8.00;;
40931;SDS011;36257;46.052;12.540;2023-08-21T20:16:34;8.93;;;8.23;;
40931;SDS011;36257;46.052;12.540;2023-08-21T20:19:00;9.68;;;8.88;;
40931;SDS011;36257;46.052;12.540;2023-08-21T20:21:26;11.57;;;8.68;;
40931;SDS011;36257;46.052;12.540;2023-08-21T20:23:53;9.55;;;8.70;;
40931;SDS011;36257;46.052;12.540;2023-08-21T20:26:19;11.85;;;9.73;;
40931;SDS011;36257;46.052;12.540;2023-08-21T20:28:45;9.32;;;8.43;;
40931;SDS011;36257;46.052;12.540;2023-08-21T20:31:11;9.43;;;8.52;;
40931;SDS011;36257;46.052;12.540;2023-08-21T20:33:36;9.30;;;7.93;;
40931;SDS011;36257;46.052;12.540;2023-08-21T20:36:02;10.15;;;9.05;;
40931;SDS011;36257;46.052;12.540;2023-08-21T20:38:29;8.75;;;7.85;;
40931;SDS011;36257;46.052;12.540;2023-08-21T20:40:56;8.35;;;7.65;;
40931;SDS011;36257;46.052;12.540;2023-08-21T20:43:29;10.35;;;8.20;;